Time;durP1;ratioP1;P1;durP2;ratioP2;P2;SDS_P1;SDS_P2;PMS_P1;PMS_P2;Temp;Humidity;BMP_temperature;BMP_pressure;BME280_temperature;BME280_humidity;BME280_pressure;Samples;Min_cycle;Max_cycle;Signal;HPM_P1;HPM_P2
2023/10/22 00:02:17;;;;;;;2.88;1.95;;;;;;;17.00;nan;61187.97;5014851;28;20176;-68
2023/10/22 00:04:43;;;;;;;1.33;1.02;;;;;;;17.03;nan;61054.00;5014672;28;20251;-68
2023/10/22 00:07:09;;;;;;;4.50;2.17;;;;;;;17.03;nan;61070.06;5014379;28;20259;-70
2023/10/22 00:09:35;;;;;;;1.05;1.05;;;;;;;17.01;nan;60982.09;5014696;28;20250;-69
2023/10/22 00:12:00;;;;;;;1.58;1.40;;;;;;;17.03;nan;61066.91;5014687;28;20219;-69
2023/10/22 00:14:26;;;;;;;1.42;1.20;;;;;;;17.12;nan;60971.78;5014080;28;20169;-70
2023/10/22 00:16:51;;;;;;;3.22;1.60;;;;;;;17.07;nan;60988.81;5014638;28;20668;-68
2023/10/22 00:19:17;;;;;;;3.22;0.98;;;;;;;16.98;nan;61014.81;5013944;28;20698;-67
2023/10/22 00:21:42;;;;;;;2.60;1.90;;;;;;;16.77;nan;60933.00;5012724;28;20938;-70
2023/10/22 00:24:08;;;;;;;1.55;1.38;;;;;;;16.67;nan;60994.00;5013982;28;20265;-69
2023/10/22 00:26:34;;;;;;;1.90;1.73;;;;;;;16.79;nan;60803.13;5014371;28;20572;-70
2023/10/22 00:28:59;;;;;;;1.60;1.50;;;;;;;16.69;nan;60784.72;5014220;28;20259;-68
2023/10/22 00:31:25;;;;;;;3.38;1.92;;;;;;;16.94;nan;60791.00;5012774;28;20176;-67
2023/10/22 00:33:50;;;;;;;2.20;2.00;;;;;;;16.82;nan;60703.31;5014285;28;20195;-70
2023/10/22 00:36:15;;;;;;;6.45;1.27;;;;;;;16.88;nan;60621.75;5013771;28;20172;-69
2023/10/22 00:38:41;;;;;;;2.05;1.60;;;;;;;16.95;nan;60652.81;5013444;28;20168;-67
2023/10/22 00:41:06;;;;;;;1.90;1.33;;;;;;;16.81;nan;60737.75;5014129;28;20172;-68
2023/10/22 00:43:32;;;;;;;3.67;2.22;;;;;;;16.95;nan;60803.03;5013410;28;20666;-67
2023/10/22 00:45:58;;;;;;;1.50;1.15;;;;;;;16.76;nan;60670.81;5014337;28;20639;-70
2023/10/22 00:48:25;;;;;;;2.58;1.75;;;;;;;16.88;nan;60717.75;5013385;28;20168;-70
2023/10/22 00:50:52;;;;;;;1.30;1.20;;;;;;;16.91;nan;60997.22;5013638;28;20176;-67
2023/10/22 00:53:17;;;;;;;1.30;1.20;;;;;;;17.00;nan;60926.75;5013512;28;20226;-68
2023/10/22 00:55:47;;;;;;;1.42;1.33;;;;;;;16.98;nan;60958.63;5013902;28;20671;-67
2023/10/22 00:58:14;;;;;;;1.05;1.02;;;;;;;17.15;nan;60855.88;5013865;28;20172;-71
2023/10/22 01:00:41;;;;;;;3.70;1.58;;;;;;;16.94;nan;60933.47;5012878;28;20180;-69
2023/10/22 01:03:07;;;;;;;2.92;2.03;;;;;;;17.09;nan;60816.13;5013392;28;20220;-69
2023/10/22 01:05:36;;;;;;;1.70;1.60;;;;;;;17.12;nan;60973.78;5013519;28;20172;-70
2023/10/22 01:08:03;;;;;;;4.32;1.75;;;;;;;17.14;nan;60762.38;5013439;28;20587;-67
2023/10/22 01:10:28;;;;;;;1.42;1.33;;;;;;;17.00;nan;60893.22;5013113;28;20172;-70
2023/10/22 01:12:54;;;;;;;1.42;1.13;;;;;;;17.24;nan;61064.75;5013600;28;20187;-69
2023/10/22 01:15:20;;;;;;;1.58;1.20;;;;;;;16.99;nan;60828.16;5013688;28;20176;-70
2023/10/22 01:17:45;;;;;;;1.00;1.00;;;;;;;17.01;nan;60827.25;5012858;28;20176;-68
2023/10/22 01:20:11;;;;;;;4.68;1.20;;;;;;;16.89;nan;60933.03;5013509;28;20297;-70
2023/10/22 01:22:36;;;;;;;1.38;1.27;;;;;;;17.01;nan;60974.91;5013008;28;20195;-70
2023/10/22 01:25:02;;;;;;;1.02;1.00;;;;;;;17.16;nan;60906.00;5013093;28;20616;-71
2023/10/22 01:27:27;;;;;;;1.80;1.17;;;;;;;17.34;nan;60988.19;5020073;28;20234;-68
2023/10/22 01:29:53;;;;;;;1.63;1.13;;;;;;;17.10;nan;60961.22;5019551;28;20286;-71
2023/10/22 01:32:18;;;;;;;1.23;1.13;;;;;;;17.22;nan;61036.66;5012877;28;20234;-70
2023/10/22 01:34:44;;;;;;;1.65;1.50;;;;;;;17.26;nan;60927.56;5012861;28;20658;-70
2023/10/22 01:37:09;;;;;;;1.08;0.98;;;;;;;17.15;nan;61093.91;5012777;28;20207;-69
2023/10/22 01:39:34;;;;;;;1.80;1.70;;;;;;;17.04;nan;60920.94;5012879;28;20214;-72
2023/10/22 01:42:00;;;;;;;1.42;1.33;;;;;;;17.00;nan;60997.00;5012769;28;20225;-70
2023/10/22 01:44:25;;;;;;;1.30;1.20;;;;;;;17.19;nan;60989.41;5012816;28;20204;-69
2023/10/22 01:46:51;;;;;;;1.00;0.90;;;;;;;16.99;nan;60814.69;5012666;28;20258;-70
2023/10/22 01:49:16;;;;;;;1.30;1.20;;;;;;;16.82;nan;60756.94;5012549;28;20188;-68
2023/10/22 01:51:41;;;;;;;5.88;2.78;;;;;;;16.99;nan;60721.78;5012738;28;20164;-69
2023/10/22 01:54:07;;;;;;;2.63;1.90;;;;;;;16.79;nan;60726.31;5012478;28;20208;-69
2023/10/22 01:56:32;;;;;;;1.38;1.27;;;;;;;16.88;nan;60714.63;5012767;28;20610;-71
2023/10/22 01:58:58;;;;;;;1.40;1.30;;;;;;;16.94;nan;60863.25;5011225;28;20601;-69
2023/10/22 02:01:26;;;;;;;2.28;1.73;;;;;;;16.82;nan;60754.34;5012290;28;20253;-68
2023/10/22 02:03:51;;;;;;;1.42;1.15;;;;;;;16.99;nan;60815.25;5012252;28;20242;-68
2023/10/22 02:06:17;;;;;;;1.80;1.35;;;;;;;16.95;nan;60972.75;5012009;28;20669;-69
2023/10/22 02:08:46;;;;;;;1.85;1.60;;;;;;;16.80;nan;60806.81;5011575;28;20182;-70
2023/10/22 02:11:11;;;;;;;2.00;1.08;;;;;;;17.03;nan;60946.19;5012129;28;20538;-71
2023/10/22 02:13:36;;;;;;;1.10;1.10;;;;;;;17.18;nan;60914.00;5011231;28;20191;-69
2023/10/22 02:16:02;;;;;;;1.00;1.00;;;;;;;17.04;nan;60815.13;5011774;28;20175;-69
2023/10/22 02:18:27;;;;;;;0.95;0.93;;;;;;;16.83;nan;60781.84;5011799;28;20168;-71
2023/10/22 02:20:59;;;;;;;1.02;0.95;;;;;;;16.75;nan;60812.09;5011886;28;20592;-70
2023/10/22 02:23:24;;;;;;;1.90;1.65;;;;;;;16.94;nan;60711.59;5011724;28;20287;-70
2023/10/22 02:25:50;;;;;;;1.20;1.10;;;;;;;16.70;nan;60721.38;5010606;28;20286;-68
2023/10/22 02:28:19;;;;;;;1.92;1.30;;;;;;;16.87;nan;60729.56;5011607;28;20330;-68
2023/10/22 02:30:47;;;;;;;1.50;1.40;;;;;;;16.94;nan;60644.50;5011717;28;20184;-72
2023/10/22 02:33:13;;;;;;;1.00;1.00;;;;;;;16.93;nan;60730.53;5011848;28;20164;-71
2023/10/22 02:35:43;;;;;;;3.83;1.42;;;;;;;16.76;nan;60684.25;5011893;28;20194;-69
2023/10/22 02:38:13;;;;;;;2.17;1.98;;;;;;;16.89;nan;60731.22;5012189;28;20160;-69
2023/10/22 02:40:38;;;;;;;1.42;1.15;;;;;;;17.16;nan;60865.28;5011904;28;20296;-69
2023/10/22 02:43:04;;;;;;;2.25;1.58;;;;;;;17.05;nan;60834.31;5026723;28;20202;-69
2023/10/22 02:45:29;;;;;;;1.65;1.42;;;;;;;17.14;nan;60854.75;5008702;28;20172;-70
2023/10/22 02:47:57;;;;;;;1.10;1.05;;;;;;;17.02;nan;60921.81;5009909;28;20178;-71
2023/10/22 02:50:24;;;;;;;2.90;2.05;;;;;;;16.88;nan;60874.59;5010068;28;20271;-68
2023/10/22 02:52:50;;;;;;;1.25;1.15;;;;;;;16.88;nan;60717.22;5009956;28;20258;-70
2023/10/22 02:55:15;;;;;;;2.60;1.27;;;;;;;16.64;nan;60559.94;5008172;28;20275;-71
2023/10/22 02:57:41;;;;;;;1.55;1.42;;;;;;;16.66;nan;60598.28;5009501;28;20291;-71
2023/10/22 03:00:10;;;;;;;1.55;1.45;;;;;;;16.82;nan;60615.63;5010846;28;20654;-70
2023/10/22 03:02:45;;;;;;;1.30;1.23;;;;;;;16.56;nan;60563.28;5012303;28;20202;-71
2023/10/22 03:05:10;;;;;;;1.60;1.27;;;;;;;16.52;nan;60598.06;5012003;28;20176;-67
2023/10/22 03:07:35;;;;;;;1.30;1.20;;;;;;;16.82;nan;60564.03;5012215;28;20302;-70
2023/10/22 03:10:01;;;;;;;1.55;1.45;;;;;;;16.71;nan;60529.06;5011741;28;20180;-70
2023/10/22 03:12:26;;;;;;;3.10;2.03;;;;;;;16.58;nan;60508.84;5012080;28;20176;-71
2023/10/22 03:14:52;;;;;;;1.52;1.42;;;;;;;16.47;nan;60530.59;5011766;28;20666;-71
2023/10/22 03:17:19;;;;;;;2.00;1.50;;;;;;;16.58;nan;60419.16;5011953;28;20255;-69
2023/10/22 03:19:45;;;;;;;3.15;2.05;;;;;;;16.50;nan;60415.38;5011574;28;20254;-71
2023/10/22 03:22:13;;;;;;;1.30;1.20;;;;;;;16.27;nan;60467.03;5008873;28;20199;-71
2023/10/22 03:24:38;;;;;;;1.75;1.45;;;;;;;16.28;nan;60393.41;4994738;28;20209;-71
2023/10/22 03:27:04;;;;;;;1.73;1.63;;;;;;;16.39;nan;60369.03;4995398;28;20179;-68
2023/10/22 03:29:32;;;;;;;1.95;1.58;;;;;;;16.42;nan;60403.28;4995873;28;20271;-71
2023/10/22 03:31:58;;;;;;;5.03;2.65;;;;;;;16.28;nan;60442.38;4995723;28;20176;-69
2023/10/22 03:34:24;;;;;;;3.03;1.75;;;;;;;16.27;nan;60379.41;4995530;28;20544;-70
2023/10/22 03:36:50;;;;;;;3.25;1.83;;;;;;;16.42;nan;60576.00;4995736;28;20176;-71
2023/10/22 03:39:15;;;;;;;1.95;1.55;;;;;;;16.34;nan;60292.41;4995737;28;20181;-70
2023/10/22 03:41:41;;;;;;;1.45;1.35;;;;;;;16.34;nan;60345.97;4995269;28;20179;-69
2023/10/22 03:44:06;;;;;;;1.75;1.63;;;;;;;16.37;nan;60250.81;4995069;28;20700;-69
2023/10/22 03:46:32;;;;;;;1.83;1.73;;;;;;;16.27;nan;60031.53;4995432;28;20232;-70
2023/10/22 03:48:58;;;;;;;1.35;1.25;;;;;;;16.32;nan;59741.25;4995354;28;20176;-69
2023/10/22 03:51:23;;;;;;;1.60;1.38;;;;;;;16.09;nan;59210.53;4995238;28;20169;-70
2023/10/22 03:53:52;;;;;;;1.40;1.20;;;;;;;16.15;nan;58571.19;4995032;28;20181;-71
2023/10/22 03:56:18;;;;;;;1.73;1.58;;;;;;;16.25;nan;58375.44;4994954;28;20165;-68
2023/10/22 03:58:43;;;;;;;3.28;1.65;;;;;;;16.10;nan;58094.56;4994900;28;20165;-69
2023/10/22 04:01:09;;;;;;;1.20;1.10;;;;;;;16.07;nan;57805.06;4995231;28;20173;-70
2023/10/22 04:03:34;;;;;;;1.83;1.65;;;;;;;15.96;nan;56066.66;4995261;28;20539;-69
2023/10/22 04:05:59;;;;;;;1.63;1.42;;;;;;;16.16;nan;55207.56;4995350;28;20208;-71
2023/10/22 04:08:25;;;;;;;1.35;1.25;;;;;;;16.31;nan;54255.56;4994464;28;20303;-68
2023/10/22 04:10:51;;;;;;;2.65;2.45;;;;;;;16.09;nan;55725.69;4994747;28;20176;-70
2023/10/22 04:13:17;;;;;;;1.35;1.25;;;;;;;16.07;nan;55689.66;4994994;28;20180;-71
2023/10/22 04:15:45;;;;;;;2.40;2.08;;;;;;;15.88;nan;55953.91;4995202;28;20520;-68
2023/10/22 04:18:10;;;;;;;1.30;1.20;;;;;;;15.90;nan;55613.91;4994611;28;20181;-68
2023/10/22 04:20:36;;;;;;;1.83;1.73;;;;;;;15.97;nan;55838.75;4994957;28;20298;-71
2023/10/22 04:23:02;;;;;;;2.15;1.52;;;;;;;15.66;nan;49290.56;4994373;28;20212;-69
2023/10/22 04:25:30;;;;;;;1.73;1.63;;;;;;;15.82;nan;40820.44;4994468;28;20193;-70
2023/10/22 04:27:55;;;;;;;1.50;1.40;;;;;;;15.62;nan;29183.84;4994973;28;20179;-69
2023/10/22 04:30:21;;;;;;;2.15;1.70;;;;;;;15.63;nan;21683.72;4994685;28;20173;-70
2023/10/22 04:32:46;;;;;;;2.10;1.50;;;;;;;15.59;nan;21030.66;4994483;28;20561;-69
2023/10/22 04:35:12;;;;;;;1.48;1.38;;;;;;;15.58;nan;17775.16;5001988;28;20177;-68
2023/10/22 04:37:38;;;;;;;2.85;1.55;;;;;;;15.75;nan;17131.09;4998445;28;20176;-68
2023/10/22 04:40:03;;;;;;;1.63;1.52;;;;;;;15.91;nan;21045.44;4994824;28;20235;-69
2023/10/22 04:42:29;;;;;;;2.22;2.03;;;;;;;15.76;nan;21364.28;4991698;28;20644;-68
2023/10/22 04:44:55;;;;;;;2.92;2.65;;;;;;;15.83;nan;19738.59;4992940;28;20431;-68
2023/10/22 04:47:21;;;;;;;3.60;1.75;;;;;;;15.69;nan;19081.50;4991584;28;20204;-69
2023/10/22 04:49:47;;;;;;;2.05;1.83;;;;;;;15.87;nan;18763.66;4992924;28;20181;-68
2023/10/22 04:52:22;;;;;;;2.00;1.63;;;;;;;15.69;nan;19406.84;4992043;28;20168;-69
2023/10/22 04:54:49;;;;;;;1.80;1.55;;;;;;;15.84;nan;19413.38;4989259;28;20647;-68
2023/10/22 04:57:15;;;;;;;1.02;0.98;;;;;;;15.79;nan;19085.59;4992383;28;20707;-68
2023/10/22 04:59:40;;;;;;;1.67;1.58;;;;;;;15.61;nan;19078.06;4992370;28;20268;-68
2023/10/22 05:02:06;;;;;;;3.25;2.05;;;;;;;10.04;nan;18842.50;4992704;28;20189;-69
2023/10/22 05:04:31;;;;;;;1.77;1.65;;;;;;;15.48;nan;19723.59;4992658;28;20273;-70
2023/10/22 05:06:57;;;;;;;1.35;1.25;;;;;;;15.59;nan;19402.72;4992238;28;20663;-70
2023/10/22 05:09:22;;;;;;;2.53;1.42;;;;;;;15.60;nan;18101.34;4992015;28;20215;-68
2023/10/22 05:11:48;;;;;;;3.78;2.40;;;;;;;15.61;nan;20380.28;4993297;28;20248;-71
2023/10/22 05:14:13;;;;;;;1.77;1.58;;;;;;;15.80;nan;21366.16;4992310;28;20188;-70
2023/10/22 05:16:39;;;;;;;2.47;1.42;;;;;;;15.46;nan;15169.03;4991665;28;20177;-70
2023/10/22 05:19:04;;;;;;;2.50;1.98;;;;;;;15.33;nan;12890.56;4991651;28;20231;-69
2023/10/22 05:21:30;;;;;;;2.28;1.88;;;;;;;15.27;nan;16137.19;4991400;28;20183;-71
2023/10/22 05:23:55;;;;;;;1.90;1.65;;;;;;;15.12;nan;21985.34;4990731;28;20635;-70
2023/10/22 05:26:22;;;;;;;2.65;2.05;;;;;;;15.01;nan;21004.31;4991369;28;20185;-69
2023/10/22 05:28:47;;;;;;;2.28;1.35;;;;;;;15.14;nan;23614.28;4991401;28;20251;-70
2023/10/22 05:31:14;;;;;;;1.42;1.33;;;;;;;14.89;nan;27837.06;4990767;28;20181;-68
2023/10/22 05:33:40;;;;;;;1.75;1.40;;;;;;;15.07;nan;33394.44;4993168;28;20652;-70
2023/10/22 05:36:15;;;;;;;1.13;1.13;;;;;;;15.14;nan;36013.56;4992233;28;20185;-70
2023/10/22 05:38:41;;;;;;;2.20;2.00;;;;;;;15.17;nan;37459.03;4990261;28;20278;-68
2023/10/22 05:41:07;;;;;;;1.48;1.38;;;;;;;15.23;nan;40746.13;4990678;28;20271;-67
2023/10/22 05:43:32;;;;;;;1.52;1.42;;;;;;;15.11;nan;45645.22;4992547;28;20315;-67
2023/10/22 05:45:58;;;;;;;1.45;1.33;;;;;;;15.30;nan;50776.59;4991558;28;20181;-69
2023/10/22 05:48:23;;;;;;;1.80;1.70;;;;;;;15.12;nan;52544.63;4991835;28;20181;-70
2023/10/22 05:50:49;;;;;;;1.42;1.33;;;;;;;15.10;nan;52286.03;4991642;28;20180;-67
2023/10/22 05:53:15;;;;;;;1.30;1.20;;;;;;;15.30;nan;53532.88;4991201;28;20194;-67
2023/10/22 05:55:40;;;;;;;2.03;1.92;;;;;;;15.34;nan;53837.34;4992251;28;20180;-71
2023/10/22 05:58:06;;;;;;;3.47;1.83;;;;;;;15.31;nan;51998.59;4991131;28;20255;-70
2023/10/22 06:00:31;;;;;;;1.73;1.55;;;;;;;15.10;nan;48082.88;4990435;28;20215;-68
2023/10/22 06:02:57;;;;;;;2.15;1.95;;;;;;;15.35;nan;46903.38;4991399;28;20569;-69
2023/10/22 06:05:23;;;;;;;2.15;1.65;;;;;;;15.50;nan;46921.88;4988874;28;20731;-70
2023/10/22 06:07:49;;;;;;;1.95;1.50;;;;;;;15.63;nan;48210.69;4988816;28;20192;-69
2023/10/22 06:10:14;;;;;;;1.80;1.60;;;;;;;15.78;nan;49750.91;4989975;28;20184;-69
2023/10/22 06:12:40;;;;;;;1.33;1.25;;;;;;;15.88;nan;50235.31;4989461;28;20176;-69
2023/10/22 06:15:06;;;;;;;2.83;2.03;;;;;;;15.79;nan;50630.38;4991051;28;20196;-71
2023/10/22 06:17:31;;;;;;;1.98;1.60;;;;;;;16.06;nan;52032.28;4991060;28;20201;-72
2023/10/22 06:19:57;;;;;;;3.03;2.08;;;;;;;16.13;nan;53203.63;4990459;28;20278;-70
2023/10/22 06:22:22;;;;;;;3.40;1.75;;;;;;;16.27;nan;54421.28;4990408;28;20607;-69
2023/10/22 06:24:48;;;;;;;4.47;1.10;;;;;;;16.17;nan;54339.13;4992111;28;20188;-69
2023/10/22 06:27:13;;;;;;;2.50;1.60;;;;;;;16.43;nan;58291.88;4990532;28;20184;-71
2023/10/22 06:29:39;;;;;;;1.70;1.50;;;;;;;16.17;nan;57715.34;4990885;28;20250;-69
2023/10/22 06:32:04;;;;;;;1.73;1.50;;;;;;;16.19;nan;57315.84;4990702;28;20177;-68
2023/10/22 06:34:30;;;;;;;1.73;1.40;;;;;;;16.61;nan;58298.44;4990785;28;20207;-71
2023/10/22 06:36:55;;;;;;;1.77;1.67;;;;;;;16.59;nan;58994.69;4990370;28;20275;-69
2023/10/22 06:39:21;;;;;;;4.95;2.75;;;;;;;16.98;nan;59773.81;4990556;28;20193;-72
2023/10/22 06:41:47;;;;;;;2.30;2.00;;;;;;;17.05;nan;59758.34;4989825;28;20177;-71
2023/10/22 06:44:12;;;;;;;3.58;2.60;;;;;;;17.07;nan;59997.91;4989638;28;20243;-69
2023/10/22 06:46:37;;;;;;;1.98;1.77;;;;;;;17.09;nan;60348.47;4990123;28;20176;-72
2023/10/22 06:49:04;;;;;;;1.65;1.55;;;;;;;17.34;nan;60422.78;4989546;28;20208;-70
2023/10/22 06:51:29;;;;;;;2.15;1.67;;;;;;;17.42;nan;60490.53;4990916;28;20248;-72
2023/10/22 06:53:54;;;;;;;1.70;1.60;;;;;;;17.53;nan;60609.25;4990464;28;20586;-72
2023/10/22 06:56:20;;;;;;;3.45;1.70;;;;;;;17.28;nan;60503.88;4989940;28;20216;-68
2023/10/22 06:58:46;;;;;;;2.42;2.03;;;;;;;17.58;nan;60793.06;4993408;28;20243;-71
2023/10/22 07:01:13;;;;;;;1.85;1.60;;;;;;;17.78;nan;60881.53;4993194;28;20181;-71
2023/10/22 07:03:45;;;;;;;3.00;2.20;;;;;;;17.83;nan;60822.56;4993585;28;20288;-71
2023/10/22 07:06:11;;;;;;;2.70;1.77;;;;;;;17.83;nan;60975.56;4993646;28;20247;-72
2023/10/22 07:08:37;;;;;;;2.08;1.45;;;;;;;17.28;nan;60821.41;4994379;28;20570;-69
2023/10/22 07:11:03;;;;;;;3.15;2.05;;;;;;;17.36;nan;60729.66;4994050;28;20188;-70
2023/10/22 07:13:29;;;;;;;1.52;1.42;;;;;;;17.96;nan;60886.81;4994481;28;20215;-73
2023/10/22 07:15:54;;;;;;;1.83;1.60;;;;;;;18.03;nan;61010.41;4995586;28;20172;-72
2023/10/22 07:18:21;;;;;;;1.95;1.70;;;;;;;14.68;nan;60813.78;4992085;28;20566;-72
2023/10/22 07:20:47;;;;;;;2.97;2.05;;;;;;;18.29;nan;60977.03;4995156;28;20663;-72
2023/10/22 07:23:13;;;;;;;5.05;2.00;;;;;;;18.49;nan;61426.34;4995414;28;20200;-71
2023/10/22 07:25:38;;;;;;;1.65;1.40;;;;;;;18.80;nan;61398.72;4995213;28;20188;-70
2023/10/22 07:28:04;;;;;;;1.98;1.48;;;;;;;19.11;nan;61378.81;4995195;28;20164;-72
2023/10/22 07:30:31;;;;;;;1.63;1.52;;;;;;;19.24;nan;61536.53;4994508;28;20188;-69
2023/10/22 07:32:57;;;;;;;2.35;1.80;;;;;;;19.52;nan;61554.75;4993313;28;20207;-72
2023/10/22 07:35:22;;;;;;;1.80;1.70;;;;;;;19.79;nan;61523.09;4992754;28;20703;-72
2023/10/22 07:37:48;;;;;;;1.38;1.27;;;;;;;20.16;nan;61675.41;4993402;28;20648;-71
2023/10/22 07:40:15;;;;;;;2.35;1.63;;;;;;;20.49;nan;61608.44;5002443;28;20267;-69
2023/10/22 07:42:41;;;;;;;3.63;2.45;;;;;;;20.73;nan;61661.59;4996197;28;20196;-72
2023/10/22 07:45:08;;;;;;;1.85;1.65;;;;;;;20.90;nan;61766.59;4992846;28;20180;-70
2023/10/22 07:47:33;;;;;;;7.35;1.65;;;;;;;20.82;nan;61687.38;4993781;28;20217;-71
2023/10/22 07:49:59;;;;;;;1.92;1.80;;;;;;;21.05;nan;61731.66;4992539;28;20644;-70
2023/10/22 07:52:24;;;;;;;2.05;1.83;;;;;;;20.99;nan;61714.44;4993199;28;20251;-69
2023/10/22 07:54:52;;;;;;;1.38;1.27;;;;;;;21.09;nan;61762.16;4993370;28;20231;-69
2023/10/22 07:57:18;;;;;;;4.25;2.35;;;;;;;21.05;nan;61907.75;4993091;28;20185;-72
2023/10/22 07:59:44;;;;;;;2.92;2.00;;;;;;;21.18;nan;61722.47;4993441;28;20180;-69
2023/10/22 08:02:10;;;;;;;2.70;1.85;;;;;;;21.38;nan;61765.38;4992110;28;20671;-70
2023/10/22 08:04:37;;;;;;;2.67;1.75;;;;;;;21.47;nan;61937.34;4993087;28;20212;-68
2023/10/22 08:07:03;;;;;;;2.78;2.15;;;;;;;21.52;nan;61807.25;4993697;28;20189;-71
2023/10/22 08:09:29;;;;;;;2.00;1.55;;;;;;;21.55;nan;61780.03;4992249;28;20651;-69
2023/10/22 08:11:55;;;;;;;2.05;1.85;;;;;;;21.79;nan;61977.81;4987817;28;20189;-70
2023/10/22 08:14:21;;;;;;;1.60;1.50;;;;;;;21.79;nan;61869.13;4991981;28;20191;-68
2023/10/22 08:16:46;;;;;;;2.60;1.70;;;;;;;21.96;nan;61856.69;4994374;28;20185;-67
2023/10/22 08:19:11;;;;;;;2.85;2.22;;;;;;;21.72;nan;61908.00;4993845;28;20290;-71
2023/10/22 08:21:37;;;;;;;3.60;1.80;;;;;;;21.67;nan;61732.72;4993984;28;20176;-69
2023/10/22 08:24:02;;;;;;;2.58;1.80;;;;;;;21.81;nan;61824.59;4993746;28;20205;-68
2023/10/22 08:26:28;;;;;;;2.53;1.40;;;;;;;21.73;nan;61831.13;4994011;28;20173;-71
2023/10/22 08:28:53;;;;;;;1.50;1.40;;;;;;;21.83;nan;61888.72;4993897;28;20235;-67
2023/10/22 08:31:19;;;;;;;2.40;1.88;;;;;;;21.67;nan;61808.69;4993922;28;20208;-67
2023/10/22 08:33:45;;;;;;;3.60;2.53;;;;;;;21.72;nan;61949.63;4993819;28;20687;-69
2023/10/22 08:36:10;;;;;;;2.80;2.50;;;;;;;21.74;nan;61894.09;4993330;28;20204;-69
2023/10/22 08:38:37;;;;;;;2.70;1.38;;;;;;;21.82;nan;61823.13;5007550;28;20287;-70
2023/10/22 08:41:03;;;;;;;1.55;1.45;;;;;;;21.62;nan;61937.69;4992568;28;20169;-72
2023/10/22 08:43:35;;;;;;;2.38;1.67;;;;;;;21.82;nan;61880.38;4991554;28;20284;-72
2023/10/22 08:46:01;;;;;;;4.72;1.98;;;;;;;21.69;nan;61932.66;4993503;28;20582;-70
2023/10/22 08:48:29;;;;;;;6.65;1.50;;;;;;;21.72;nan;61949.06;4993645;28;20192;-70
2023/10/22 08:50:56;;;;;;;2.03;1.30;;;;;;;21.57;nan;61911.75;4993340;28;20227;-69
2023/10/22 08:53:22;;;;;;;2.13;1.58;;;;;;;21.66;nan;62035.84;4993786;28;20175;-68
2023/10/22 08:55:47;;;;;;;1.98;1.50;;;;;;;21.43;nan;61880.25;4993557;28;20173;-70
2023/10/22 08:58:19;;;;;;;5.47;1.70;;;;;;;21.51;nan;61744.28;4992918;28;20173;-70
2023/10/22 09:00:46;;;;;;;1.67;1.58;;;;;;;21.54;nan;61908.94;4993563;28;20236;-70
2023/10/22 09:03:16;;;;;;;2.03;1.48;;;;;;;21.37;nan;61751.25;4993336;28;20316;-73
2023/10/22 09:05:42;;;;;;;1.92;1.60;;;;;;;21.40;nan;62028.19;4993557;28;20308;-71
2023/10/22 09:08:08;;;;;;;3.03;1.85;;;;;;;21.37;nan;61766.84;4993444;28;20175;-73
2023/10/22 09:10:34;;;;;;;3.85;2.40;;;;;;;21.31;nan;61895.78;4993315;28;20177;-72
2023/10/22 09:13:15;;;;;;;2.25;1.92;;;;;;;21.35;nan;61821.78;4992998;28;20165;-69
2023/10/22 09:15:45;;;;;;;1.50;1.40;;;;;;;21.37;nan;61811.59;4992137;28;20177;-70
2023/10/22 09:18:11;;;;;;;1.67;1.15;;;;;;;21.29;nan;61856.53;4993216;28;20165;-70
2023/10/22 09:20:38;;;;;;;5.40;2.00;;;;;;;21.40;nan;61778.06;4992803;28;20228;-68
2023/10/22 09:23:23;;;;;;;3.28;1.60;;;;;;;21.48;nan;61901.53;4992691;28;20679;-71
2023/10/22 09:25:50;;;;;;;4.45;2.13;;;;;;;21.36;nan;61804.72;4992442;28;20690;-71
2023/10/22 09:28:27;;;;;;;3.00;1.92;;;;;;;21.72;nan;61819.00;4992826;28;20276;-67
2023/10/22 09:30:57;;;;;;;1.95;1.48;;;;;;;21.47;nan;61778.75;4992860;28;20176;-69
2023/10/22 09:33:39;;;;;;;1.30;1.20;;;;;;;21.49;nan;61855.88;4992951;28;20176;-71
2023/10/22 09:36:08;;;;;;;3.55;2.35;;;;;;;21.27;nan;61693.13;4992804;28;20623;-70
2023/10/22 09:38:48;;;;;;;1.88;1.30;;;;;;;21.33;nan;61874.06;4992661;28;20172;-70
2023/10/22 09:41:29;;;;;;;1.95;1.40;;;;;;;21.41;nan;61792.75;4992906;28;20184;-71
2023/10/22 09:43:57;;;;;;;1.33;1.23;;;;;;;21.29;nan;61740.16;4992508;28;20189;-72
2023/10/22 09:46:27;;;;;;;2.45;1.58;;;;;;;21.40;nan;61848.25;4992830;28;20184;-69
2023/10/22 09:48:56;;;;;;;2.00;1.35;;;;;;;21.42;nan;61910.28;4992895;28;20650;-70
2023/10/22 09:51:23;;;;;;;1.55;1.45;;;;;;;21.53;nan;61912.41;4992403;28;20173;-71
2023/10/22 09:53:53;;;;;;;1.20;1.10;;;;;;;21.60;nan;61905.34;4992764;28;20231;-72
2023/10/22 09:56:23;;;;;;;1.20;1.10;;;;;;;21.59;nan;61828.78;4992417;28;20172;-71
2023/10/22 09:58:56;;;;;;;1.77;1.67;;;;;;;21.40;nan;61741.66;4992650;28;20173;-71
2023/10/22 10:01:24;;;;;;;1.42;1.20;;;;;;;21.30;nan;61634.16;4992650;28;20666;-70
2023/10/22 10:03:51;;;;;;;1.58;1.30;;;;;;;21.53;nan;61897.38;4992312;28;20200;-69
2023/10/22 10:06:18;;;;;;;2.33;1.70;;;;;;;21.56;nan;61817.56;4992244;28;20161;-70
2023/10/22 10:08:44;;;;;;;1.58;1.35;;;;;;;21.50;nan;61792.00;4992335;28;20311;-70
2023/10/22 10:11:11;;;;;;;5.10;2.08;;;;;;;21.46;nan;61933.03;4991837;28;20255;-69
2023/10/22 10:13:36;;;;;;;1.63;1.52;;;;;;;21.48;nan;61732.53;4992260;28;20674;-69
2023/10/22 10:16:05;;;;;;;2.67;1.73;;;;;;;21.69;nan;61826.56;4992297;28;20164;-69
2023/10/22 10:19:02;;;;;;;2.45;1.60;;;;;;;21.91;nan;61921.81;4991939;28;20740;-71
2023/10/22 10:21:34;;;;;;;2.10;1.42;;;;;;;22.17;nan;61942.44;4991940;28;20168;-70
2023/10/22 10:24:16;;;;;;;2.95;1.50;;;;;;;22.47;nan;61995.34;4991745;28;20219;-70
2023/10/22 10:26:42;;;;;;;1.67;1.58;;;;;;;22.61;nan;62085.69;4992227;28;20636;-71
2023/10/22 10:29:07;;;;;;;2.60;1.88;;;;;;;22.58;nan;62062.00;4990782;28;20177;-72
2023/10/22 10:31:33;;;;;;;1.83;1.42;;;;;;;22.62;nan;61894.06;4992832;28;20242;-70
2023/10/22 10:34:01;;;;;;;2.10;1.80;;;;;;;22.89;nan;61958.63;4995937;28;20180;-70
2023/10/22 10:36:28;;;;;;;2.15;1.73;;;;;;;22.98;nan;62114.84;4996276;28;20172;-68
2023/10/22 10:38:53;;;;;;;2.00;1.60;;;;;;;22.80;nan;62112.56;4996419;28;20202;-70
2023/10/22 10:41:53;;;;;;;8.07;1.88;;;;;;;23.31;nan;62142.00;4998144;28;20547;-71
2023/10/22 10:44:19;;;;;;;2.50;1.85;;;;;;;23.38;nan;62088.88;4996144;28;20200;-71
2023/10/22 10:46:44;;;;;;;4.38;1.55;;;;;;;23.43;nan;62063.28;4996052;28;20640;-72
2023/10/22 10:49:09;;;;;;;6.18;2.60;;;;;;;23.89;nan;62135.97;4996138;28;20259;-69
2023/10/22 10:51:35;;;;;;;4.05;2.40;;;;;;;24.09;nan;62154.09;4995970;28;20173;-68
2023/10/22 10:54:00;;;;;;;2.55;1.83;;;;;;;24.39;nan;62252.50;4996012;28;20738;-68
2023/10/22 10:56:47;;;;;;;1.52;1.30;;;;;;;23.85;nan;62118.94;4995774;28;20229;-72
2023/10/22 10:59:31;;;;;;;2.83;1.70;;;;;;;24.07;nan;62217.13;4995259;28;20649;-72
2023/10/22 11:02:06;;;;;;;2.83;1.73;;;;;;;23.95;nan;62273.91;4995461;28;20176;-71
2023/10/22 11:04:36;;;;;;;2.05;1.60;;;;;;;24.20;nan;62139.97;4994870;28;20250;-69
2023/10/22 11:07:02;;;;;;;3.47;2.42;;;;;;;24.46;nan;62261.03;4995200;28;20564;-72
2023/10/22 11:09:31;;;;;;;2.47;1.90;;;;;;;24.40;nan;62345.66;4995050;28;20239;-71
2023/10/22 11:12:03;;;;;;;2.20;1.60;;;;;;;24.44;nan;62235.25;5010597;28;20604;-72
2023/10/22 11:14:34;;;;;;;4.40;2.03;;;;;;;24.55;nan;62409.25;4994626;28;20256;-68
2023/10/22 11:16:59;;;;;;;2.08;1.88;;;;;;;24.58;nan;62431.53;4994612;28;20172;-69
2023/10/22 11:19:27;;;;;;;1.98;1.70;;;;;;;24.58;nan;62185.91;4995123;28;20265;-70
2023/10/22 11:21:56;;;;;;;2.30;1.75;;;;;;;24.59;nan;62226.22;4994283;28;20172;-69
2023/10/22 11:24:33;;;;;;;2.75;1.80;;;;;;;24.83;nan;62276.00;4994920;28;20204;-70
2023/10/22 11:27:02;;;;;;;3.08;1.85;;;;;;;24.74;nan;62223.91;4994849;28;20615;-71
2023/10/22 11:29:29;;;;;;;2.38;1.65;;;;;;;24.31;nan;62387.59;4991943;28;20177;-68
2023/10/22 11:31:58;;;;;;;2.08;1.55;;;;;;;24.45;nan;62210.28;4994522;28;20169;-72
2023/10/22 11:34:25;;;;;;;6.75;2.10;;;;;;;24.42;nan;62196.38;4994137;28;20546;-68
2023/10/22 11:36:58;;;;;;;3.00;2.17;;;;;;;24.62;nan;62250.56;4994559;28;20169;-69
2023/10/22 11:39:31;;;;;;;3.35;1.88;;;;;;;24.86;nan;62397.66;4991689;28;20248;-73
2023/10/22 11:41:59;;;;;;;1.92;1.58;;;;;;;24.94;nan;62359.72;4994352;28;20173;-71
2023/10/22 11:44:33;;;;;;;1.92;1.58;;;;;;;25.08;nan;62299.31;4990659;28;20506;-71
2023/10/22 11:47:01;;;;;;;1.85;1.63;;;;;;;24.98;nan;62191.72;4994659;28;20203;-69
2023/10/22 11:49:27;;;;;;;3.03;2.10;;;;;;;25.21;nan;62412.97;4994084;28;20263;-70
2023/10/22 11:51:53;;;;;;;1.85;1.48;;;;;;;25.11;nan;62433.50;4994072;28;20173;-69